Time;durP1;ratioP1;P1;durP2;ratioP2;P2;SDS_P1;SDS_P2;PMS_P1;PMS_P2;Temp;Humidity;BMP_temperature;BMP_pressure;BME280_temperature;BME280_humidity;BME280_pressure;Samples;Min_cycle;Max_cycle;Signal;HPM_P1;HPM_P2
2022/02/09 00:04:13;;;;;;;28.65;25.30;;;9.40;99.90;;;;;;5094228;28;20865;-83
2022/02/09 00:09:05;;;;;;;29.25;25.30;;;9.30;99.90;;;;;;5112890;28;20980;-83
2022/02/09 00:11:39;;;;;;;27.98;24.35;;;9.30;99.90;;;;;;5111385;28;20378;-82
2022/02/09 00:19:37;;;;;;;26.45;23.63;;;9.30;99.90;;;;;;5132320;27;20432;-81
2022/02/09 00:27:44;;;;;;;25.98;23.13;;;9.30;99.90;;;;;;5114534;28;20474;-80
2022/02/09 01:43:35;;;;;;;22.95;20.65;;;9.40;99.90;;;;;;5112838;28;20381;-81
2022/02/09 01:55:25;;;;;;;25.67;22.67;;;9.40;99.90;;;;;;5122946;27;20454;-81
2022/02/09 01:56:32;;;;;;;27.07;22.73;;;9.40;99.90;;;;;;5100798;28;20486;-81
2022/02/09 01:58:58;;;;;;;24.40;21.20;;;9.20;99.90;;;;;;5083553;28;20812;-81
2022/02/09 02:01:25;;;;;;;24.53;21.87;;;9.30;99.90;;;;;;5106009;28;20466;-82
2022/02/09 02:03:51;;;;;;;25.98;22.10;;;9.30;99.90;;;;;;5101965;28;20768;-82
2022/02/09 02:06:18;;;;;;;28.08;22.35;;;9.40;99.90;;;;;;5117982;28;20457;-82
2022/02/09 02:08:47;;;;;;;27.10;21.63;;;9.40;99.90;;;;;;5096737;28;20489;-80
2022/02/09 02:11:23;;;;;;;27.67;22.48;;;9.40;99.90;;;;;;5091981;28;20877;-80
2022/02/09 02:16:36;;;;;;;25.92;21.17;;;9.30;99.90;;;;;;5096008;28;20870;-80
2022/02/09 02:19:26;;;;;;;29.80;22.90;;;9.30;99.90;;;;;;5098164;28;20917;-81
2022/02/09 02:22:02;;;;;;;28.17;22.48;;;9.30;99.90;;;;;;5106130;28;20833;-82
2022/02/09 02:24:56;;;;;;;28.42;22.65;;;9.20;99.90;;;;;;5117673;28;20404;-80
2022/02/09 02:27:45;;;;;;;29.90;23.63;;;9.20;99.90;;;;;;5114064;28;20876;-80
2022/02/09 03:18:06;;;;;;;24.47;21.87;;;9.10;99.90;;;;;;5105125;28;20486;-81
2022/02/09 03:20:40;;;;;;;25.80;23.05;;;9.20;99.90;;;;;;5113614;28;20399;-81
2022/02/09 03:47:45;;;;;;;28.52;25.60;;;9.30;99.90;;;;;;5109148;28;20400;-82
2022/02/09 03:55:38;;;;;;;32.95;27.90;;;9.20;99.90;;;;;;5112618;28;20414;-81
2022/02/09 03:58:04;;;;;;;31.63;28.42;;;9.20;99.90;;;;;;5094206;28;20381;-79
2022/02/09 04:00:34;;;;;;;32.45;28.95;;;9.30;99.90;;;;;;5075132;28;20392;-80
2022/02/09 04:03:01;;;;;;;33.13;29.08;;;9.30;99.90;;;;;;5091578;28;20387;-80
2022/02/09 04:05:27;;;;;;;33.78;29.73;;;9.20;99.90;;;;;;5111883;28;20378;-81
2022/02/09 04:07:53;;;;;;;32.70;29.17;;;9.20;99.90;;;;;;5092215;28;20505;-81
2022/02/09 04:10:25;;;;;;;34.07;30.17;;;9.20;99.90;;;;;;5076280;28;20818;-81
2022/02/09 04:18:02;;;;;;;34.53;30.80;;;9.20;99.90;;;;;;5113417;28;20495;-80
2022/02/09 04:47:24;;;;;;;33.78;30.17;;;9.10;99.90;;;;;;5095408;28;20397;-81
2022/02/09 04:50:01;;;;;;;32.43;29.13;;;9.10;99.90;;;;;;5074021;28;20825;-81
2022/02/09 04:57:36;;;;;;;27.17;24.40;;;9.10;99.90;;;;;;5092524;28;21111;-82
2022/02/09 05:00:22;;;;;;;26.45;23.85;;;9.20;99.90;;;;;;5074533;28;20403;-81
2022/02/09 05:29:03;;;;;;;20.13;18.15;;;9.30;99.90;;;;;;5107948;28;20410;-80
2022/02/09 05:31:29;;;;;;;18.95;17.13;;;9.20;99.90;;;;;;5110104;28;20463;-80
2022/02/09 05:33:54;;;;;;;18.63;16.73;;;9.20;99.90;;;;;;5093565;28;20384;-81
2022/02/09 05:36:20;;;;;;;18.03;16.33;;;9.10;99.90;;;;;;5079807;28;20389;-81
2022/02/09 05:38:46;;;;;;;17.20;15.50;;;9.10;99.90;;;;;;5093533;28;20438;-82
2022/02/09 05:41:11;;;;;;;16.08;14.57;;;9.20;99.90;;;;;;5094248;28;20380;-80
2022/02/09 05:43:37;;;;;;;17.73;15.13;;;9.10;99.90;;;;;;5112399;28;20491;-81
2022/02/09 05:52:03;;;;;;;15.32;13.82;;;9.30;99.90;;;;;;5022386;28;20389;-81
2022/02/09 05:59:48;;;;;;;14.10;12.27;;;9.20;99.90;;;;;;5103169;28;20392;-81
2022/02/09 06:02:16;;;;;;;13.43;12.02;;;9.20;99.90;;;;;;5106753;28;20384;-81
2022/02/09 06:04:42;;;;;;;13.15;11.75;;;9.20;99.90;;;;;;5114578;28;20372;-81
2022/02/09 06:07:07;;;;;;;12.27;11.05;;;9.20;99.90;;;;;;5086416;28;20476;-81
2022/02/09 06:09:35;;;;;;;14.05;11.38;;;9.20;99.90;;;;;;5132069;28;20377;-81
2022/02/09 06:19:58;;;;;;;12.50;10.60;;;9.20;99.90;;;;;;5111900;28;20503;-80
2022/02/09 06:22:24;;;;;;;12.37;10.83;;;9.20;99.90;;;;;;5091582;28;20382;-80
2022/02/09 06:24:50;;;;;;;11.57;10.38;;;9.30;99.90;;;;;;5128703;28;20938;-80
2022/02/09 06:27:16;;;;;;;11.90;10.70;;;9.20;99.90;;;;;;5130378;27;20456;-79
2022/02/09 06:29:47;;;;;;;14.07;11.75;;;9.20;99.90;;;;;;5112773;28;20746;-79
2022/02/09 06:32:14;;;;;;;13.03;11.67;;;9.20;99.90;;;;;;5131945;28;20386;-80
2022/02/09 06:34:42;;;;;;;12.27;10.23;;;9.30;99.90;;;;;;5104869;28;20470;-81
2022/02/09 06:37:27;;;;;;;11.20;10.02;;;9.30;99.90;;;;;;5094185;28;20471;-82
2022/02/09 06:39:58;;;;;;;11.95;9.90;;;9.30;99.90;;;;;;5075867;28;20385;-81
2022/02/09 06:42:24;;;;;;;10.35;9.25;;;9.30;99.90;;;;;;5094643;28;20380;-81
2022/02/09 06:44:51;;;;;;;13.37;10.03;;;9.20;99.90;;;;;;5112120;28;20370;-82
2022/02/09 06:47:22;;;;;;;10.95;9.80;;;9.20;99.90;;;;;;5117202;28;20383;-81
2022/02/09 06:49:55;;;;;;;11.43;9.70;;;9.40;99.90;;;;;;5097645;28;20458;-80
2022/02/09 06:52:21;;;;;;;10.43;9.10;;;9.30;99.90;;;;;;5110044;28;20406;-82
2022/02/09 06:55:06;;;;;;;9.87;8.87;;;9.20;99.90;;;;;;5094453;28;20475;-81
2022/02/09 06:57:45;;;;;;;11.57;9.90;;;9.30;99.90;;;;;;5093832;28;20433;-82
2022/02/09 07:00:12;;;;;;;10.73;9.65;;;9.40;99.90;;;;;;5103337;28;20383;-82
2022/02/09 07:02:41;;;;;;;10.68;9.50;;;9.40;99.90;;;;;;5113457;28;20382;-81
2022/02/09 07:05:10;;;;;;;12.18;10.27;;;9.40;99.90;;;;;;5115743;28;20393;-82
2022/02/09 07:07:36;;;;;;;11.05;9.95;;;9.40;99.90;;;;;;5103418;28;20908;-81
2022/02/09 07:10:03;;;;;;;12.32;11.07;;;9.40;99.90;;;;;;5094168;28;20381;-80
2022/02/09 07:12:29;;;;;;;13.77;11.40;;;9.40;99.90;;;;;;5096055;28;20376;-80
2022/02/09 07:14:54;;;;;;;12.37;11.07;;;9.40;99.90;;;;;;5095596;28;20414;-81
2022/02/09 07:17:20;;;;;;;13.00;11.50;;;9.40;99.90;;;;;;5103246;28;20367;-82
2022/02/09 07:19:55;;;;;;;13.27;11.90;;;9.40;99.90;;;;;;5113917;28;20374;-82
2022/02/09 07:22:25;;;;;;;13.15;11.80;;;9.40;99.90;;;;;;5114081;28;20583;-81
2022/02/09 07:25:02;;;;;;;13.35;11.80;;;9.40;99.90;;;;;;5096448;28;20410;-82
2022/02/09 07:27:39;;;;;;;12.77;11.48;;;9.40;99.90;;;;;;5104436;28;20394;-81
2022/02/09 07:30:06;;;;;;;12.45;11.18;;;9.40;99.90;;;;;;5075684;28;20392;-83
2022/02/09 07:32:32;;;;;;;12.93;11.63;;;9.60;99.90;;;;;;5097214;28;20376;-81
2022/02/09 07:34:58;;;;;;;12.23;10.67;;;9.50;99.90;;;;;;5094436;28;20802;-82
2022/02/09 07:37:23;;;;;;;12.35;11.05;;;9.60;99.90;;;;;;5114725;28;20370;-80
2022/02/09 07:39:49;;;;;;;12.23;10.57;;;9.60;99.90;;;;;;5116536;28;20381;-81
2022/02/09 07:42:22;;;;;;;11.60;10.40;;;9.60;99.90;;;;;;5115808;28;20790;-81
2022/02/09 07:45:27;;;;;;;12.50;10.33;;;9.60;99.90;;;;;;5084912;28;20414;-80
2022/02/09 07:47:47;;;;;;;11.55;10.43;;;9.60;99.90;;;;;;5091338;28;20400;-80
2022/02/09 07:50:31;;;;;;;12.05;10.75;;;9.60;99.90;;;;;;5095626;28;20782;-80
2022/02/09 07:53:09;;;;;;;11.40;10.20;;;9.60;99.90;;;;;;5076088;28;20388;-80
2022/02/09 07:55:36;;;;;;;10.95;9.93;;;9.80;99.90;;;;;;5077697;28;20858;-81
2022/02/09 07:58:02;;;;;;;10.98;9.82;;;9.70;99.90;;;;;;5112971;28;20768;-80
2022/02/09 08:00:29;;;;;;;11.52;10.43;;;9.60;99.90;;;;;;5095211;28;20405;-80
2022/02/09 08:02:54;;;;;;;12.60;10.10;;;9.70;99.90;;;;;;5114816;28;20387;-81
2022/02/09 08:05:20;;;;;;;9.98;8.98;;;9.70;99.90;;;;;;5101656;28;20379;-82
2022/02/09 08:07:46;;;;;;;9.65;8.65;;;9.60;99.90;;;;;;5102748;28;20441;-81
2022/02/09 08:10:21;;;;;;;9.73;8.27;;;9.70;99.90;;;;;;5110806;28;20432;-81
2022/02/09 08:29:05;;;;;;;6.78;6.07;;;9.80;99.90;;;;;;5109847;28;20491;-81
2022/02/09 08:34:20;;;;;;;9.07;6.60;;;9.80;99.90;;;;;;5082482;28;20370;-81
2022/02/09 08:36:45;;;;;;;7.90;6.28;;;9.80;99.90;;;;;;5095533;28;21030;-80
2022/02/09 08:39:11;;;;;;;7.70;6.75;;;9.80;99.90;;;;;;5110292;28;20386;-81
2022/02/09 08:41:37;;;;;;;7.80;6.57;;;9.80;99.90;;;;;;5114178;28;20374;-81
2022/02/09 08:44:03;;;;;;;7.20;6.20;;;10.00;99.90;;;;;;5111805;28;20382;-80
2022/02/09 08:46:29;;;;;;;6.72;6.13;;;9.90;99.90;;;;;;5094999;28;20753;-81
2022/02/09 08:48:54;;;;;;;5.73;5.20;;;9.90;99.90;;;;;;5110103;28;20402;-81
2022/02/09 08:51:22;;;;;;;6.63;5.15;;;9.90;99.90;;;;;;5091496;28;20407;-81
2022/02/09 08:53:48;;;;;;;5.77;5.17;;;10.00;99.90;;;;;;5111618;28;20373;-81
2022/02/09 08:56:14;;;;;;;5.30;4.65;;;10.00;99.90;;;;;;5111660;28;20370;-81
2022/02/09 08:58:41;;;;;;;5.88;4.70;;;10.20;99.90;;;;;;5109691;28;20382;-81
2022/02/09 09:01:12;;;;;;;5.82;4.50;;;10.10;99.90;;;;;;5093110;28;20938;-81
2022/02/09 09:03:48;;;;;;;5.13;4.63;;;10.20;99.90;;;;;;5110381;28;20380;-80
2022/02/09 09:06:21;;;;;;;4.93;4.53;;;10.10;99.90;;;;;;5111503;28;20932;-80
2022/02/09 10:30:59;;;;;;;5.63;5.13;;;10.90;99.90;;;;;;5102094;28;20922;-81
2022/02/09 10:33:48;;;;;;;5.13;4.63;;;10.80;99.90;;;;;;5093969;28;20384;-82
2022/02/09 10:36:17;;;;;;;5.47;4.97;;;10.80;99.90;;;;;;5076556;28;20389;-83
2022/02/09 10:38:44;;;;;;;5.27;4.50;;;10.80;99.90;;;;;;5133372;27;20435;-84
2022/02/09 10:41:36;;;;;;;5.25;4.60;;;10.90;99.90;;;;;;5105977;28;20399;-84
2022/02/09 10:44:04;;;;;;;5.10;4.43;;;10.90;99.90;;;;;;5096376;28;20382;-83
2022/02/09 10:46:29;;;;;;;4.75;4.28;;;10.80;99.90;;;;;;5099998;28;20433;-83
2022/02/09 10:49:00;;;;;;;4.78;4.20;;;10.80;99.90;;;;;;5092067;28;20432;-83
2022/02/09 10:51:31;;;;;;;5.47;4.00;;;10.90;99.90;;;;;;5104612;28;20387;-84
2022/02/09 10:54:18;;;;;;;5.40;4.07;;;11.00;99.90;;;;;;5095033;28;20383;-83
2022/02/09 10:56:45;;;;;;;6.10;4.22;;;11.00;99.90;;;;;;5095382;28;20383;-83
2022/02/09 10:59:12;;;;;;;4.32;3.85;;;11.00;99.90;;;;;;5112658;28;20783;-83
2022/02/09 11:01:39;;;;;;;6.13;4.25;;;10.90;99.90;;;;;;5093881;27;20409;-83
2022/02/09 11:04:06;;;;;;;6.15;3.90;;;10.80;99.90;;;;;;5133426;27;20373;-83
2022/02/09 11:06:34;;;;;;;9.63;4.03;;;10.90;99.90;;;;;;5115899;27;20806;-82
2022/02/09 11:09:04;;;;;;;4.90;4.10;;;11.00;99.90;;;;;;5131359;27;20408;-83
2022/02/09 11:11:30;;;;;;;5.20;3.42;;;10.80;99.90;;;;;;5115161;27;20389;-81
2022/02/09 11:13:55;;;;;;;5.47;3.30;;;10.80;99.90;;;;;;5112485;28;20375;-81
2022/02/09 11:16:23;;;;;;;4.73;3.20;;;10.90;99.90;;;;;;5112829;28;20440;-81
2022/02/09 11:18:51;;;;;;;4.70;3.33;;;10.90;99.90;;;;;;5113542;28;20399;-80
2022/02/09 11:21:26;;;;;;;6.28;4.63;;;11.00;99.90;;;;;;5113988;28;20920;-81
2022/02/09 11:23:59;;;;;;;5.50;4.07;;;11.20;99.90;;;;;;5112690;28;20404;-82
2022/02/09 11:32:13;;;;;;;4.03;2.60;;;11.20;99.90;;;;;;5112446;28;20390;-81
2022/02/09 11:35:14;;;;;;;2.67;2.45;;;11.20;99.90;;;;;;5112796;28;20382;-82
2022/02/09 11:43:29;;;;;;;3.40;3.00;;;11.10;99.90;;;;;;5111617;28;20391;-81
2022/02/09 12:11:34;;;;;;;4.57;3.10;;;10.60;99.90;;;;;;5112585;28;20733;-81
2022/02/09 12:14:12;;;;;;;4.93;3.38;;;10.40;99.90;;;;;;5094929;28;20857;-81
2022/02/09 12:17:01;;;;;;;4.15;3.75;;;10.10;99.90;;;;;;5094681;28;20537;-80
2022/02/09 12:19:35;;;;;;;3.92;3.42;;;10.10;99.90;;;;;;5093760;28;20475;-81
2022/02/09 12:24:32;;;;;;;5.05;4.13;;;9.90;99.90;;;;;;5114442;28;20370;-81
2022/02/09 12:27:12;;;;;;;4.43;3.67;;;9.90;99.90;;;;;;5094475;28;20435;-81
2022/02/09 12:29:39;;;;;;;5.20;4.07;;;10.00;99.90;;;;;;5113932;28;20443;-81
2022/02/09 12:32:16;;;;;;;4.18;3.78;;;10.10;99.90;;;;;;5114758;28;20424;-81
2022/02/09 12:34:51;;;;;;;4.53;3.83;;;10.10;99.90;;;;;;5112687;28;20906;-83
2022/02/09 12:37:17;;;;;;;3.97;3.58;;;10.10;99.90;;;;;;5106779;28;20512;-82
2022/02/09 12:40:19;;;;;;;4.55;4.10;;;10.10;99.90;;;;;;5091408;28;20955;-81
2022/02/09 12:42:51;;;;;;;4.43;3.47;;;10.20;99.90;;;;;;5100743;28;20397;-82
2022/02/09 12:45:24;;;;;;;3.55;3.25;;;10.30;99.90;;;;;;5110642;27;20730;-84
2022/02/09 12:47:55;;;;;;;4.13;3.50;;;10.40;99.90;;;;;;5106493;28;20756;-83
2022/02/09 12:50:35;;;;;;;3.85;3.40;;;10.50;99.90;;;;;;5106260;28;20401;-84
2022/02/09 12:53:03;;;;;;;3.90;3.30;;;10.50;99.90;;;;;;5109243;27;20428;-84
2022/02/09 12:55:34;;;;;;;3.92;3.53;;;10.60;99.90;;;;;;5131580;27;20373;-83
2022/02/09 12:58:04;;;;;;;3.72;3.33;;;10.60;99.90;;;;;;5096440;28;20380;-82
2022/02/09 13:00:43;;;;;;;4.18;3.40;;;10.70;99.90;;;;;;5103409;27;20377;-83
2022/02/09 13:03:12;;;;;;;3.53;3.10;;;10.70;99.90;;;;;;5132972;27;20361;-84
2022/02/09 13:05:43;;;;;;;3.75;3.17;;;10.70;99.90;;;;;;5101692;28;20955;-83
2022/02/09 13:08:10;;;;;;;4.45;3.15;;;10.70;99.90;;;;;;5105018;28;20473;-82
2022/02/09 13:10:38;;;;;;;3.03;2.83;;;10.60;99.90;;;;;;5099649;27;20859;-82
2022/02/09 13:13:17;;;;;;;4.27;3.10;;;10.70;99.90;;;;;;5114077;27;20399;-83
2022/02/09 13:15:52;;;;;;;4.05;2.97;;;10.90;99.90;;;;;;5094337;28;20946;-83
2022/02/09 13:22:11;;;;;;;3.40;2.95;;;10.80;99.90;;;;;;5095693;28;20380;-83
2022/02/09 14:35:47;;;;;;;3.55;3.25;;;10.30;99.90;;;;;;5135696;27;20381;-82
2022/02/09 14:54:39;;;;;;;3.17;2.97;;;10.20;99.90;;;;;;5112017;28;20493;-83
2022/02/09 14:57:10;;;;;;;6.13;3.80;;;10.20;99.90;;;;;;5093505;28;20390;-84
2022/02/09 15:02:09;;;;;;;3.30;2.92;;;10.20;99.90;;;;;;5108492;28;20478;-82
2022/02/09 15:05:13;;;;;;;3.38;2.90;;;10.20;99.90;;;;;;5090763;28;20406;-83
2022/02/09 15:07:37;;;;;;;2.95;2.67;;;10.20;99.90;;;;;;5108759;28;20407;-85
2022/02/09 15:10:10;;;;;;;2.90;2.60;;;10.20;99.90;;;;;;5091150;28;20398;-83
2022/02/09 15:20:43;;;;;;;3.22;2.92;;;10.30;99.90;;;;;;5112197;28;20444;-84
2022/02/09 15:23:09;;;;;;;2.92;2.72;;;10.10;99.90;;;;;;5112373;27;20379;-83
2022/02/09 15:25:36;;;;;;;3.40;3.10;;;10.00;99.90;;;;;;5093561;28;20383;-83
2022/02/09 15:28:04;;;;;;;3.58;3.10;;;10.20;99.90;;;;;;5110960;28;20406;-84
2022/02/09 15:30:45;;;;;;;4.35;2.97;;;10.00;99.90;;;;;;5092389;28;22209;-84
2022/02/09 15:33:12;;;;;;;3.03;2.80;;;9.90;99.90;;;;;;5110866;28;20394;-83
2022/02/09 15:35:41;;;;;;;3.40;3.10;;;9.90;99.90;;;;;;5093469;28;20756;-83
2022/02/09 15:38:15;;;;;;;3.53;3.22;;;9.80;99.90;;;;;;5109701;27;20387;-84
2022/02/09 15:41:00;;;;;;;3.67;3.25;;;9.80;99.90;;;;;;5094238;28;20371;-83
2022/02/09 15:59:44;;;;;;;3.05;2.85;;;9.90;99.90;;;;;;5112251;28;20398;-83
2022/02/09 16:23:13;;;;;;;3.00;2.80;;;9.90;99.90;;;;;;5112322;28;20378;-83
2022/02/09 16:37:01;;;;;;;5.20;4.07;;;9.80;99.90;;;;;;5112927;27;20382;-84
2022/02/09 16:44:40;;;;;;;4.00;3.70;;;9.80;99.90;;;;;;5108371;28;20794;-83
2022/02/09 16:47:46;;;;;;;6.40;5.32;;;9.70;99.90;;;;;;5096540;27;20385;-84
2022/02/09 16:50:16;;;;;;;3.90;3.60;;;9.80;99.90;;;;;;5091861;28;20505;-83
2022/02/09 16:52:52;;;;;;;4.00;3.70;;;9.70;99.90;;;;;;5090666;28;20404;-83
2022/02/09 16:56:18;;;;;;;4.43;3.60;;;9.80;99.90;;;;;;5091045;28;20463;-83
2022/02/09 17:20:02;;;;;;;4.70;3.70;;;9.70;99.90;;;;;;5109213;28;20451;-81
2022/02/09 17:22:30;;;;;;;4.88;3.92;;;9.70;99.90;;;;;;5094045;28;20384;-81
2022/02/09 17:24:55;;;;;;;4.40;4.00;;;9.70;99.90;;;;;;5088405;28;20376;-81
2022/02/09 17:27:21;;;;;;;4.83;4.43;;;9.70;99.90;;;;;;5089452;28;20391;-82
2022/02/09 17:30:12;;;;;;;4.75;4.35;;;9.70;99.90;;;;;;5090721;28;20415;-81
2022/02/09 17:35:36;;;;;;;5.50;4.68;;;9.70;99.90;;;;;;5056244;28;20400;-82
2022/02/09 17:57:09;;;;;;;8.05;6.20;;;9.80;99.90;;;;;;5088457;28;20455;-83
2022/02/09 17:59:43;;;;;;;5.80;5.20;;;9.80;99.90;;;;;;5089077;28;20380;-82
2022/02/09 18:02:08;;;;;;;5.03;4.25;;;9.70;99.90;;;;;;5090622;28;20411;-82
2022/02/09 18:04:34;;;;;;;9.77;7.72;;;9.70;99.90;;;;;;5089632;28;20424;-82
2022/02/09 18:07:05;;;;;;;9.83;6.70;;;9.70;99.90;;;;;;5091209;28;20379;-82
2022/02/09 18:09:38;;;;;;;12.60;8.45;;;9.70;99.90;;;;;;5069714;28;20438;-82
2022/02/09 18:12:16;;;;;;;13.23;8.98;;;9.70;99.90;;;;;;5071267;28;20400;-81
2022/02/09 18:15:37;;;;;;;14.37;10.83;;;9.80;99.90;;;;;;5088673;28;20391;-81
2022/02/09 18:26:27;;;;;;;5.32;4.85;;;9.70;99.90;;;;;;5107707;28;20378;-81
2022/02/09 18:31:33;;;;;;;5.38;4.88;;;9.70;99.90;;;;;;5102370;28;20384;-82
2022/02/09 19:00:53;;;;;;;6.13;5.63;;;9.60;99.90;;;;;;5081424;28;20373;-81
2022/02/09 19:03:06;;;;;;;7.07;6.47;;;9.70;99.90;;;;;;5111191;28;20374;-82
2022/02/09 19:05:40;;;;;;;6.78;6.20;;;9.70;99.90;;;;;;5083167;28;20404;-81
2022/02/09 19:19:21;;;;;;;7.20;6.60;;;9.70;99.90;;;;;;5097438;27;20463;-81
2022/02/09 19:27:41;;;;;;;6.90;6.30;;;9.70;99.90;;;;;;5114444;28;20396;-81
2022/02/09 19:40:39;;;;;;;8.37;7.57;;;9.60;99.90;;;;;;5098756;28;20423;-81
2022/02/09 19:56:41;;;;;;;8.20;7.50;;;9.50;99.90;;;;;;5103940;27;20391;-82
2022/02/09 19:59:16;;;;;;;8.70;7.90;;;9.50;99.90;;;;;;5094994;28;20379;-81
2022/02/09 20:01:42;;;;;;;8.43;7.63;;;9.50;99.90;;;;;;5112608;28;20371;-82
2022/02/09 20:04:08;;;;;;;8.43;7.72;;;9.50;99.90;;;;;;5105729;28;20395;-82
2022/02/09 20:06:35;;;;;;;8.70;8.00;;;9.40;99.90;;;;;;5104776;28;20388;-82
2022/02/09 20:09:01;;;;;;;8.73;7.97;;;9.50;99.90;;;;;;5107613;28;20449;-82
2022/02/09 20:11:26;;;;;;;8.30;7.60;;;9.40;99.90;;;;;;5089750;28;20410;-82
2022/02/09 20:13:53;;;;;;;8.77;8.00;;;9.40;99.90;;;;;;5106512;28;20399;-81
2022/02/09 20:16:20;;;;;;;8.30;7.60;;;9.40;99.90;;;;;;5109142;28;20376;-80
2022/02/09 20:18:50;;;;;;;9.80;8.90;;;9.50;99.90;;;;;;5089341;28;20699;-81
2022/02/09 20:21:16;;;;;;;9.35;8.43;;;9.40;99.90;;;;;;5088717;28;20400;-81
2022/02/09 20:23:42;;;;;;;9.68;8.80;;;9.40;99.90;;;;;;5109950;28;20388;-81
2022/02/09 20:26:10;;;;;;;10.27;9.37;;;9.30;99.90;;;;;;5082066;28;20962;-81
2022/02/09 20:28:39;;;;;;;10.80;9.70;;;9.30;99.90;;;;;;5097252;28;20534;-82
2022/02/09 20:31:10;;;;;;;10.65;9.65;;;9.30;99.90;;;;;;5086677;28;20385;-81
2022/02/09 20:33:42;;;;;;;9.90;9.00;;;9.30;99.90;;;;;;5082488;28;20571;-81
2022/02/09 20:36:11;;;;;;;9.20;8.40;;;9.30;99.90;;;;;;5096966;28;20512;-82
2022/02/09 20:38:37;;;;;;;11.00;9.80;;;9.40;99.90;;;;;;5106225;28;20383;-81
2022/02/09 20:41:07;;;;;;;8.90;8.20;;;9.30;99.90;;;;;;5095700;28;20880;-81
2022/02/09 20:43:39;;;;;;;9.52;8.70;;;9.50;99.90;;;;;;5095188;28;20395;-82
2022/02/09 20:46:07;;;;;;;8.70;7.90;;;9.40;99.90;;;;;;5104385;28;20398;-81
2022/02/09 20:48:33;;;;;;;8.95;8.25;;;9.40;99.90;;;;;;5105202;28;21191;-81
2022/02/09 20:51:03;;;;;;;8.63;7.83;;;9.50;99.90;;;;;;5107252;27;20904;-82
2022/02/09 20:53:30;;;;;;;8.82;8.05;;;9.30;99.90;;;;;;5109617;27;20383;-81
2022/02/09 20:55:57;;;;;;;8.68;7.93;;;9.30;99.90;;;;;;5107738;28;20432;-82
2022/02/09 20:58:24;;;;;;;9.20;8.27;;;9.30;99.90;;;;;;5109875;28;20390;-82
2022/02/09 21:01:01;;;;;;;8.87;7.93;;;9.30;99.90;;;;;;5086051;28;20383;-82
2022/02/09 21:11:16;;;;;;;9.30;8.50;;;9.40;99.90;;;;;;5103870;28;20399;-82
2022/02/09 21:26:55;;;;;;;9.82;8.93;;;9.40;99.90;;;;;;5090475;28;20477;-82
2022/02/09 21:56:45;;;;;;;10.50;9.27;;;9.30;99.90;;;;;;5109464;28;20402;-83
2022/02/09 22:21:54;;;;;;;12.45;11.38;;;9.30;99.90;;;;;;5114156;28;20659;-81
2022/02/09 22:45:46;;;;;;;13.40;12.10;;;9.20;99.90;;;;;;5114041;28;20381;-82
2022/02/09 22:50:52;;;;;;;13.20;12.00;;;9.20;99.90;;;;;;5115635;28;20371;-82
2022/02/09 22:56:02;;;;;;;13.10;12.07;;;9.20;99.90;;;;;;5112799;28;20386;-80
2022/02/09 22:58:27;;;;;;;13.27;12.18;;;9.20;99.90;;;;;;5094645;28;20788;-81
2022/02/09 23:15:10;;;;;;;12.70;11.70;;;9.10;99.90;;;;;;5137405;27;20518;-82
2022/02/09 23:54:42;;;;;;;14.80;13.30;;;9.20;99.90;;;;;;5099254;28;20485;-83
